sensor_id;sensor_type;location;lat;lon;timestamp;P1;durP1;ratioP1;P2;durP2;ratioP2
31866;SDS011;18431;45.580;-122.680;2022-09-13T00:00:26;6.90;;;3.85;;
31866;SDS011;18431;45.580;-122.680;2022-09-13T00:02:56;4.72;;;3.50;;
31866;SDS011;18431;45.580;-122.680;2022-09-13T00:05:26;3.77;;;3.40;;
31866;SDS011;18431;45.580;-122.680;2022-09-13T00:07:59;3.77;;;3.37;;
31866;SDS011;18431;45.580;-122.680;2022-09-13T00:10:29;3.72;;;3.30;;
31866;SDS011;18431;45.580;-122.680;2022-09-13T00:13:01;4.10;;;3.45;;
31866;SDS011;18431;45.580;-122.680;2022-09-13T00:15:31;3.77;;;3.47;;
31866;SDS011;18431;45.580;-122.680;2022-09-13T00:18:01;4.55;;;3.50;;
31866;SDS011;18431;45.580;-122.680;2022-09-13T00:20:31;5.15;;;3.52;;
31866;SDS011;18431;45.580;-122.680;2022-09-13T00:23:01;5.20;;;3.70;;
31866;SDS011;18431;45.580;-122.680;2022-09-13T00:25:31;6.25;;;3.52;;
31866;SDS011;18431;45.580;-122.680;2022-09-13T00:28:01;3.95;;;3.42;;
31866;SDS011;18431;45.580;-122.680;2022-09-13T00:30:31;4.60;;;3.35;;
31866;SDS011;18431;45.580;-122.680;2022-09-13T00:33:00;4.70;;;3.30;;
31866;SDS011;18431;45.580;-122.680;2022-09-13T00:35:30;5.70;;;3.45;;
31866;SDS011;18431;45.580;-122.680;2022-09-13T00:38:01;4.17;;;3.58;;
31866;SDS011;18431;45.580;-122.680;2022-09-13T00:40:35;5.03;;;3.40;;
31866;SDS011;18431;45.580;-122.680;2022-09-13T00:43:04;3.50;;;2.98;;
31866;SDS011;18431;45.580;-122.680;2022-09-13T00:45:35;4.60;;;2.70;;
31866;SDS011;18431;45.580;-122.680;2022-09-13T00:48:07;3.15;;;2.90;;
31866;SDS011;18431;45.580;-122.680;2022-09-13T00:50:39;2.80;;;2.58;;
31866;SDS011;18431;45.580;-122.680;2022-09-13T00:53:11;2.50;;;2.30;;
31866;SDS011;18431;45.580;-122.680;2022-09-13T00:55:45;2.70;;;2.50;;
31866;SDS011;18431;45.580;-122.680;2022-09-13T00:58:42;2.62;;;2.42;;
31866;SDS011;18431;45.580;-122.680;2022-09-13T01:01:13;2.87;;;2.50;;
31866;SDS011;18431;45.580;-122.680;2022-09-13T01:03:44;3.17;;;2.42;;
31866;SDS011;18431;45.580;-122.680;2022-09-13T01:06:17;2.55;;;2.35;;
31866;SDS011;18431;45.580;-122.680;2022-09-13T01:08:49;2.90;;;2.60;;
31866;SDS011;18431;45.580;-122.680;2022-09-13T01:11:25;2.83;;;2.62;;
31866;SDS011;18431;45.580;-122.680;2022-09-13T01:14:05;2.83;;;2.62;;
31866;SDS011;18431;45.580;-122.680;2022-09-13T01:16:36;2.80;;;2.60;;
31866;SDS011;18431;45.580;-122.680;2022-09-13T01:19:05;2.70;;;2.50;;
31866;SDS011;18431;45.580;-122.680;2022-09-13T01:32:50;3.00;;;2.80;;
31866;SDS011;18431;45.580;-122.680;2022-09-13T01:35:21;2.80;;;2.60;;
31866;SDS011;18431;45.580;-122.680;2022-09-13T01:38:03;3.77;;;3.05;;
31866;SDS011;18431;45.580;-122.680;2022-09-13T01:43:23;3.10;;;2.80;;
31866;SDS011;18431;45.580;-122.680;2022-09-13T01:46:12;3.20;;;2.92;;
31866;SDS011;18431;45.580;-122.680;2022-09-13T01:57:08;2.85;;;2.62;;
31866;SDS011;18431;45.580;-122.680;2022-09-13T02:04:55;3.52;;;3.22;;
31866;SDS011;18431;45.580;-122.680;2022-09-13T02:07:34;3.20;;;2.90;;
31866;SDS011;18431;45.580;-122.680;2022-09-13T02:10:09;2.95;;;2.72;;
31866;SDS011;18431;45.580;-122.680;2022-09-13T02:12:40;5.25;;;3.10;;
31866;SDS011;18431;45.580;-122.680;2022-09-13T02:15:22;3.52;;;2.83;;
31866;SDS011;18431;45.580;-122.680;2022-09-13T02:17:58;4.83;;;3.10;;
31866;SDS011;18431;45.580;-122.680;2022-09-13T02:20:27;4.28;;;2.75;;
31866;SDS011;18431;45.580;-122.680;2022-09-13T02:23:03;7.37;;;3.05;;
31866;SDS011;18431;45.580;-122.680;2022-09-13T02:25:37;8.25;;;3.10;;
31866;SDS011;18431;45.580;-122.680;2022-09-13T02:28:08;3.90;;;3.10;;
31866;SDS011;18431;45.580;-122.680;2022-09-13T02:33:31;3.75;;;2.92;;
31866;SDS011;18431;45.580;-122.680;2022-09-13T02:36:11;4.92;;;3.47;;
31866;SDS011;18431;45.580;-122.680;2022-09-13T02:38:42;6.90;;;3.33;;
31866;SDS011;18431;45.580;-122.680;2022-09-13T02:41:14;5.92;;;3.40;;
31866;SDS011;18431;45.580;-122.680;2022-09-13T02:43:56;6.00;;;3.22;;
31866;SDS011;18431;45.580;-122.680;2022-09-13T02:55:20;3.75;;;3.08;;
31866;SDS011;18431;45.580;-122.680;2022-09-13T02:57:45;4.60;;;3.00;;
31866;SDS011;18431;45.580;-122.680;2022-09-13T03:00:33;5.08;;;3.25;;
31866;SDS011;18431;45.580;-122.680;2022-09-13T03:03:04;4.65;;;3.22;;
31866;SDS011;18431;45.580;-122.680;2022-09-13T03:05:38;6.85;;;3.22;;
31866;SDS011;18431;45.580;-122.680;2022-09-13T03:08:26;5.50;;;3.40;;
31866;SDS011;18431;45.580;-122.680;2022-09-13T03:10:59;3.30;;;3.00;;
31866;SDS011;18431;45.580;-122.680;2022-09-13T03:16:47;5.83;;;3.10;;
31866;SDS011;18431;45.580;-122.680;2022-09-13T03:22:20;5.78;;;3.17;;
31866;SDS011;18431;45.580;-122.680;2022-09-13T03:28:00;5.95;;;3.25;;
31866;SDS011;18431;45.580;-122.680;2022-09-13T03:30:41;3.27;;;2.98;;
31866;SDS011;18431;45.580;-122.680;2022-09-13T03:33:15;4.72;;;2.85;;
31866;SDS011;18431;45.580;-122.680;2022-09-13T03:36:08;4.65;;;2.90;;
31866;SDS011;18431;45.580;-122.680;2022-09-13T03:42:04;3.83;;;3.05;;
31866;SDS011;18431;45.580;-122.680;2022-09-13T03:44:34;4.22;;;2.85;;
31866;SDS011;18431;45.580;-122.680;2022-09-13T03:49:48;5.25;;;3.22;;
31866;SDS011;18431;45.580;-122.680;2022-09-13T03:52:20;4.67;;;3.33;;
31866;SDS011;18431;45.580;-122.680;2022-09-13T03:55:11;3.40;;;3.10;;
31866;SDS011;18431;45.580;-122.680;2022-09-13T03:57:41;3.60;;;3.27;;
31866;SDS011;18431;45.580;-122.680;2022-09-13T04:00:11;4.47;;;3.33;;
31866;SDS011;18431;45.580;-122.680;2022-09-13T04:02:43;3.65;;;3.25;;
31866;SDS011;18431;45.580;-122.680;2022-09-13T04:05:13;3.02;;;2.83;;
31866;SDS011;18431;45.580;-122.680;2022-09-13T04:07:44;2.85;;;2.65;;
31866;SDS011;18431;45.580;-122.680;2022-09-13T04:10:13;3.27;;;2.98;;
31866;SDS011;18431;45.580;-122.680;2022-09-13T04:12:43;3.10;;;2.90;;
31866;SDS011;18431;45.580;-122.680;2022-09-13T04:15:13;3.47;;;2.87;;
31866;SDS011;18431;45.580;-122.680;2022-09-13T04:17:49;3.55;;;2.83;;
31866;SDS011;18431;45.580;-122.680;2022-09-13T04:20:15;4.60;;;3.15;;
31866;SDS011;18431;45.580;-122.680;2022-09-13T04:22:55;3.10;;;2.90;;
31866;SDS011;18431;45.580;-122.680;2022-09-13T04:25:25;3.83;;;3.20;;
31866;SDS011;18431;45.580;-122.680;2022-09-13T04:27:55;3.17;;;2.87;;
31866;SDS011;18431;45.580;-122.680;2022-09-13T04:30:26;3.10;;;2.83;;
31866;SDS011;18431;45.580;-122.680;2022-09-13T04:32:57;2.92;;;2.67;;
31866;SDS011;18431;45.580;-122.680;2022-09-13T04:35:47;3.20;;;2.90;;
31866;SDS011;18431;45.580;-122.680;2022-09-13T04:38:17;3.15;;;2.85;;
31866;SDS011;18431;45.580;-122.680;2022-09-13T04:40:51;2.92;;;2.72;;
31866;SDS011;18431;45.580;-122.680;2022-09-13T04:43:22;4.15;;;3.20;;
31866;SDS011;18431;45.580;-122.680;2022-09-13T04:45:52;3.80;;;3.37;;
31866;SDS011;18431;45.580;-122.680;2022-09-13T04:48:22;3.47;;;3.17;;
31866;SDS011;18431;45.580;-122.680;2022-09-13T04:51:02;5.05;;;3.40;;
31866;SDS011;18431;45.580;-122.680;2022-09-13T04:53:32;3.50;;;3.20;;
31866;SDS011;18431;45.580;-122.680;2022-09-13T04:56:03;3.67;;;3.37;;
31866;SDS011;18431;45.580;-122.680;2022-09-13T04:58:34;3.70;;;3.40;;
31866;SDS011;18431;45.580;-122.680;2022-09-13T05:01:13;3.42;;;3.22;;
31866;SDS011;18431;45.580;-122.680;2022-09-13T05:03:44;3.37;;;3.05;;
31866;SDS011;18431;45.580;-122.680;2022-09-13T05:06:19;3.72;;;3.42;;
31866;SDS011;18431;45.580;-122.680;2022-09-13T05:08:50;4.03;;;3.30;;
31866;SDS011;18431;45.580;-122.680;2022-09-13T05:14:10;3.65;;;3.08;;
31866;SDS011;18431;45.580;-122.680;2022-09-13T05:19:29;4.15;;;3.75;;
31866;SDS011;18431;45.580;-122.680;2022-09-13T05:21:59;3.83;;;3.42;;
31866;SDS011;18431;45.580;-122.680;2022-09-13T05:24:29;3.40;;;3.10;;
31866;SDS011;18431;45.580;-122.680;2022-09-13T05:26:59;3.40;;;3.10;;
31866;SDS011;18431;45.580;-122.680;2022-09-13T05:29:29;3.60;;;3.30;;
31866;SDS011;18431;45.580;-122.680;2022-09-13T05:31:59;3.55;;;3.25;;
31866;SDS011;18431;45.580;-122.680;2022-09-13T05:34:29;3.75;;;3.42;;
31866;SDS011;18431;45.580;-122.680;2022-09-13T05:36:59;3.58;;;3.27;;
31866;SDS011;18431;45.580;-122.680;2022-09-13T05:39:29;3.33;;;3.02;;
31866;SDS011;18431;45.580;-122.680;2022-09-13T05:42:05;3.52;;;3.22;;
31866;SDS011;18431;45.580;-122.680;2022-09-13T05:44:30;3.50;;;3.20;;
31866;SDS011;18431;45.580;-122.680;2022-09-13T05:47:00;3.80;;;3.37;;
31866;SDS011;18431;45.580;-122.680;2022-09-13T05:49:30;5.03;;;4.00;;
31866;SDS011;18431;45.580;-122.680;2022-09-13T05:52:00;4.33;;;3.55;;
31866;SDS011;18431;45.580;-122.680;2022-09-13T05:54:30;3.80;;;3.50;;
31866;SDS011;18431;45.580;-122.680;2022-09-13T05:57:00;3.52;;;3.15;;
31866;SDS011;18431;45.580;-122.680;2022-09-13T05:59:30;4.00;;;3.60;;
31866;SDS011;18431;45.580;-122.680;2022-09-13T06:02:00;3.92;;;3.47;;
31866;SDS011;18431;45.580;-122.680;2022-09-13T06:04:30;3.72;;;3.42;;
31866;SDS011;18431;45.580;-122.680;2022-09-13T06:07:10;3.70;;;3.40;;
31866;SDS011;18431;45.580;-122.680;2022-09-13T06:09:40;3.80;;;3.42;;
31866;SDS011;18431;45.580;-122.680;2022-09-13T06:12:10;4.55;;;3.72;;
31866;SDS011;18431;45.580;-122.680;2022-09-13T06:14:40;4.03;;;3.58;;
31866;SDS011;18431;45.580;-122.680;2022-09-13T06:17:10;3.47;;;3.17;;
31866;SDS011;18431;45.580;-122.680;2022-09-13T06:19:40;3.60;;;3.30;;
31866;SDS011;18431;45.580;-122.680;2022-09-13T06:22:10;3.92;;;3.52;;
31866;SDS011;18431;45.580;-122.680;2022-09-13T06:24:40;3.83;;;3.42;;
31866;SDS011;18431;45.580;-122.680;2022-09-13T06:29:59;3.80;;;3.35;;
31866;SDS011;18431;45.580;-122.680;2022-09-13T06:32:30;3.47;;;3.17;;
31866;SDS011;18431;45.580;-122.680;2022-09-13T06:34:59;5.33;;;3.62;;
31866;SDS011;18431;45.580;-122.680;2022-09-13T06:37:29;4.42;;;3.70;;
31866;SDS011;18431;45.580;-122.680;2022-09-13T06:39:59;3.62;;;3.20;;
31866;SDS011;18431;45.580;-122.680;2022-09-13T06:42:32;4.50;;;3.50;;
31866;SDS011;18431;45.580;-122.680;2022-09-13T06:45:02;3.60;;;3.30;;
31866;SDS011;18431;45.580;-122.680;2022-09-13T06:47:33;4.58;;;3.40;;
31866;SDS011;18431;45.580;-122.680;2022-09-13T06:50:03;3.33;;;3.02;;
31866;SDS011;18431;45.580;-122.680;2022-09-13T06:52:34;4.30;;;3.50;;
31866;SDS011;18431;45.580;-122.680;2022-09-13T06:55:04;4.03;;;3.65;;
31866;SDS011;18431;45.580;-122.680;2022-09-13T06:57:34;3.67;;;3.37;;
31866;SDS011;18431;45.580;-122.680;2022-09-13T07:00:04;4.30;;;3.52;;
31866;SDS011;18431;45.580;-122.680;2022-09-13T07:02:34;3.92;;;3.30;;
31866;SDS011;18431;45.580;-122.680;2022-09-13T07:05:05;3.20;;;2.90;;
31866;SDS011;18431;45.580;-122.680;2022-09-13T07:07:37;3.37;;;3.05;;
31866;SDS011;18431;45.580;-122.680;2022-09-13T07:10:07;3.42;;;3.08;;
31866;SDS011;18431;45.580;-122.680;2022-09-13T07:12:39;3.58;;;3.27;;
31866;SDS011;18431;45.580;-122.680;2022-09-13T07:15:09;3.77;;;3.17;;
31866;SDS011;18431;45.580;-122.680;2022-09-13T07:17:39;3.58;;;3.27;;
31866;SDS011;18431;45.580;-122.680;2022-09-13T07:25:39;3.90;;;3.50;;
31866;SDS011;18431;45.580;-122.680;2022-09-13T07:28:09;3.52;;;3.20;;
31866;SDS011;18431;45.580;-122.680;2022-09-13T07:30:39;4.08;;;3.60;;
31866;SDS011;18431;45.580;-122.680;2022-09-13T07:33:09;3.60;;;3.30;;
31866;SDS011;18431;45.580;-122.680;2022-09-13T07:35:39;3.60;;;3.12;;
31866;SDS011;18431;45.580;-122.680;2022-09-13T07:38:09;3.20;;;2.90;;
31866;SDS011;18431;45.580;-122.680;2022-09-13T07:40:39;4.72;;;3.10;;
31866;SDS011;18431;45.580;-122.680;2022-09-13T07:43:08;3.60;;;2.95;;
31866;SDS011;18431;45.580;-122.680;2022-09-13T07:45:38;3.40;;;3.10;;
31866;SDS011;18431;45.580;-122.680;2022-09-13T07:48:08;3.52;;;3.22;;
31866;SDS011;18431;45.580;-122.680;2022-09-13T07:50:38;3.15;;;2.85;;
31866;SDS011;18431;45.580;-122.680;2022-09-13T07:55:48;3.30;;;3.00;;
31866;SDS011;18431;45.580;-122.680;2022-09-13T07:58:18;3.75;;;3.25;;
31866;SDS011;18431;45.580;-122.680;2022-09-13T08:00:48;4.17;;;3.12;;
31866;SDS011;18431;45.580;-122.680;2022-09-13T08:06:07;3.25;;;2.98;;
31866;SDS011;18431;45.580;-122.680;2022-09-13T08:11:38;3.45;;;3.15;;
31866;SDS011;18431;45.580;-122.680;2022-09-13T08:14:05;3.65;;;3.00;;
31866;SDS011;18431;45.580;-122.680;2022-09-13T08:19:24;3.02;;;2.80;;
31866;SDS011;18431;45.580;-122.680;2022-09-13T08:21:54;3.37;;;3.05;;
31866;SDS011;18431;45.580;-122.680;2022-09-13T08:24:24;3.22;;;2.87;;
31866;SDS011;18431;45.580;-122.680;2022-09-13T08:26:54;3.37;;;2.92;;
31866;SDS011;18431;45.580;-122.680;2022-09-13T08:29:24;3.27;;;2.98;;
31866;SDS011;18431;45.580;-122.680;2022-09-13T08:31:54;3.33;;;3.02;;
31866;SDS011;18431;45.580;-122.680;2022-09-13T08:34:24;3.42;;;3.02;;
31866;SDS011;18431;45.580;-122.680;2022-09-13T08:36:54;4.00;;;3.30;;
31866;SDS011;18431;45.580;-122.680;2022-09-13T08:45:08;2.90;;;2.67;;
31866;SDS011;18431;45.580;-122.680;2022-09-13T08:47:39;3.00;;;2.70;;
31866;SDS011;18431;45.580;-122.680;2022-09-13T08:50:25;3.08;;;2.77;;
31866;SDS011;18431;45.580;-122.680;2022-09-13T08:53:23;3.00;;;2.80;;
31866;SDS011;18431;45.580;-122.680;2022-09-13T08:56:07;3.30;;;2.90;;
31866;SDS011;18431;45.580;-122.680;2022-09-13T09:04:43;2.95;;;2.75;;
31866;SDS011;18431;45.580;-122.680;2022-09-13T09:07:29;2.92;;;2.72;;
31866;SDS011;18431;45.580;-122.680;2022-09-13T09:10:04;3.45;;;3.15;;
31866;SDS011;18431;45.580;-122.680;2022-09-13T09:12:42;2.80;;;2.60;;
31866;SDS011;18431;45.580;-122.680;2022-09-13T09:15:19;2.87;;;2.67;;
31866;SDS011;18431;45.580;-122.680;2022-09-13T09:20:24;3.02;;;2.72;;
31866;SDS011;18431;45.580;-122.680;2022-09-13T09:22:58;3.10;;;2.90;;
31866;SDS011;18431;45.580;-122.680;2022-09-13T09:25:29;2.90;;;2.70;;
31866;SDS011;18431;45.580;-122.680;2022-09-13T09:28:01;3.17;;;2.85;;
31866;SDS011;18431;45.580;-122.680;2022-09-13T09:30:40;2.70;;;2.47;;
31866;SDS011;18431;45.580;-122.680;2022-09-13T09:35:50;2.62;;;2.42;;
31866;SDS011;18431;45.580;-122.680;2022-09-13T09:38:35;2.77;;;2.50;;
31866;SDS011;18431;45.580;-122.680;2022-09-13T09:41:29;2.85;;;2.62;;
31866;SDS011;18431;45.580;-122.680;2022-09-13T09:43:49;3.40;;;2.50;;
31866;SDS011;18431;45.580;-122.680;2022-09-13T09:49:15;2.50;;;2.30;;
31866;SDS011;18431;45.580;-122.680;2022-09-13T09:52:03;2.47;;;2.27;;
31866;SDS011;18431;45.580;-122.680;2022-09-13T09:54:35;2.60;;;2.40;;
31866;SDS011;18431;45.580;-122.680;2022-09-13T09:57:06;2.52;;;2.33;;
31866;SDS011;18431;45.580;-122.680;2022-09-13T09:59:37;2.60;;;2.40;;
31866;SDS011;18431;45.580;-122.680;2022-09-13T10:02:12;2.60;;;2.40;;
31866;SDS011;18431;45.580;-122.680;2022-09-13T10:04:43;2.30;;;2.10;;
31866;SDS011;18431;45.580;-122.680;2022-09-13T10:07:29;2.27;;;2.15;;
31866;SDS011;18431;45.580;-122.680;2022-09-13T10:10:04;2.40;;;2.20;;
31866;SDS011;18431;45.580;-122.680;2022-09-13T10:12:32;2.50;;;2.30;;
31866;SDS011;18431;45.580;-122.680;2022-09-13T10:15:16;2.70;;;2.20;;
31866;SDS011;18431;45.580;-122.680;2022-09-13T10:18:04;2.20;;;2.10;;
31866;SDS011;18431;45.580;-122.680;2022-09-13T10:20:42;2.50;;;2.27;;
31866;SDS011;18431;45.580;-122.680;2022-09-13T10:25:57;2.50;;;2.30;;
31866;SDS011;18431;45.580;-122.680;2022-09-13T10:28:32;2.40;;;2.20;;
31866;SDS011;18431;45.580;-122.680;2022-09-13T10:33:58;2.72;;;2.20;;
31866;SDS011;18431;45.580;-122.680;2022-09-13T10:36:34;2.27;;;2.12;;
31866;SDS011;18431;45.580;-122.680;2022-09-13T10:39:02;2.20;;;2.00;;
31866;SDS011;18431;45.580;-122.680;2022-09-13T10:41:37;2.33;;;2.20;;
31866;SDS011;18431;45.580;-122.680;2022-09-13T10:44:32;2.25;;;2.05;;
31866;SDS011;18431;45.580;-122.680;2022-09-13T10:47:17;2.50;;;2.30;;
31866;SDS011;18431;45.580;-122.680;2022-09-13T10:49:47;2.20;;;2.00;;
31866;SDS011;18431;45.580;-122.680;2022-09-13T10:54:55;2.25;;;2.05;;
31866;SDS011;18431;45.580;-122.680;2022-09-13T10:57:52;2.47;;;2.00;;
31866;SDS011;18431;45.580;-122.680;2022-09-13T11:00:27;2.30;;;2.10;;
31866;SDS011;18431;45.580;-122.680;2022-09-13T11:03:08;2.52;;;2.10;;
31866;SDS011;18431;45.580;-122.680;2022-09-13T11:08:49;2.30;;;2.10;;
31866;SDS011;18431;45.580;-122.680;2022-09-13T11:14:17;2.00;;;1.90;;
31866;SDS011;18431;45.580;-122.680;2022-09-13T11:25:20;2.42;;;2.22;;
31866;SDS011;18431;45.580;-122.680;2022-09-13T11:27:49;2.22;;;2.12;;
31866;SDS011;18431;45.580;-122.680;2022-09-13T11:30:34;2.70;;;2.10;;
31866;SDS011;18431;45.580;-122.680;2022-09-13T11:33:08;2.25;;;2.05;;
31866;SDS011;18431;45.580;-122.680;2022-09-13T11:35:46;2.42;;;2.22;;
31866;SDS011;18431;45.580;-122.680;2022-09-13T11:38:40;3.05;;;2.20;;
31866;SDS011;18431;45.580;-122.680;2022-09-13T11:55:43;2.25;;;2.05;;
31866;SDS011;18431;45.580;-122.680;2022-09-13T11:57:59;2.10;;;2.00;;
31866;SDS011;18431;45.580;-122.680;2022-09-13T12:00:44;2.37;;;2.17;;
31866;SDS011;18431;45.580;-122.680;2022-09-13T12:05:54;2.30;;;2.10;;
31866;SDS011;18431;45.580;-122.680;2022-09-13T12:08:28;2.30;;;2.10;;
31866;SDS011;18431;45.580;-122.680;2022-09-13T12:11:15;2.58;;;2.10;;
31866;SDS011;18431;45.580;-122.680;2022-09-13T12:13:49;2.50;;;2.20;;
31866;SDS011;18431;45.580;-122.680;2022-09-13T12:16:40;2.08;;;1.87;;
31866;SDS011;18431;45.580;-122.680;2022-09-13T12:19:21;2.42;;;2.15;;
31866;SDS011;18431;45.580;-122.680;2022-09-13T12:21:49;2.65;;;2.40;;
31866;SDS011;18431;45.580;-122.680;2022-09-13T12:27:04;2.65;;;2.05;;
31866;SDS011;18431;45.580;-122.680;2022-09-13T12:32:17;2.25;;;2.10;;
31866;SDS011;18431;45.580;-122.680;2022-09-13T12:34:55;2.15;;;2.00;;
31866;SDS011;18431;45.580;-122.680;2022-09-13T12:40:38;2.40;;;2.20;;
31866;SDS011;18431;45.580;-122.680;2022-09-13T12:46:18;2.42;;;2.22;;
31866;SDS011;18431;45.580;-122.680;2022-09-13T12:49:10;2.20;;;2.00;;
31866;SDS011;18431;45.580;-122.680;2022-09-13T12:54:42;2.10;;;2.00;;
31866;SDS011;18431;45.580;-122.680;2022-09-13T13:03:12;2.58;;;2.20;;
31866;SDS011;18431;45.580;-122.680;2022-09-13T13:05:42;2.37;;;2.08;;
31866;SDS011;18431;45.580;-122.680;2022-09-13T13:11:10;2.22;;;2.02;;
31866;SDS011;18431;45.580;-122.680;2022-09-13T13:16:33;2.33;;;2.12;;
31866;SDS011;18431;45.580;-122.680;2022-09-13T13:19:27;2.10;;;1.90;;
31866;SDS011;18431;45.580;-122.680;2022-09-13T13:25:29;2.55;;;2.35;;
31866;SDS011;18431;45.580;-122.680;2022-09-13T13:28:00;2.37;;;2.20;;
31866;SDS011;18431;45.580;-122.680;2022-09-13T13:30:38;1.90;;;1.80;;
31866;SDS011;18431;45.580;-122.680;2022-09-13T13:33:17;2.20;;;2.00;;
31866;SDS011;18431;45.580;-122.680;2022-09-13T13:35:47;2.17;;;1.98;;
31866;SDS011;18431;45.580;-122.680;2022-09-13T13:41:07;2.12;;;1.92;;
31866;SDS011;18431;45.580;-122.680;2022-09-13T13:43:47;2.00;;;1.90;;
31866;SDS011;18431;45.580;-122.680;2022-09-13T13:46:24;1.90;;;1.80;;
31866;SDS011;18431;45.580;-122.680;2022-09-13T14:00:18;2.22;;;2.00;;
31866;SDS011;18431;45.580;-122.680;2022-09-13T14:03:30;2.20;;;2.00;;
31866;SDS011;18431;45.580;-122.680;2022-09-13T14:05:32;1.90;;;1.80;;
31866;SDS011;18431;45.580;-122.680;2022-09-13T14:08:22;2.10;;;1.95;;
31866;SDS011;18431;45.580;-122.680;2022-09-13T14:13:43;2.15;;;1.95;;
31866;SDS011;18431;45.580;-122.680;2022-09-13T14:24:37;2.20;;;2.00;;
31866;SDS011;18431;45.580;-122.680;2022-09-13T14:27:13;2.40;;;2.05;;
31866;SDS011;18431;45.580;-122.680;2022-09-13T14:29:45;2.25;;;2.12;;
31866;SDS011;18431;45.580;-122.680;2022-09-13T14:35:26;2.20;;;2.00;;
31866;SDS011;18431;45.580;-122.680;2022-09-13T14:38:19;2.62;;;1.90;;
31866;SDS011;18431;45.580;-122.680;2022-09-13T14:40:41;2.20;;;2.00;;
31866;SDS011;18431;45.580;-122.680;2022-09-13T14:43:20;2.12;;;1.90;;
31866;SDS011;18431;45.580;-122.680;2022-09-13T14:45:49;2.02;;;1.90;;
31866;SDS011;18431;45.580;-122.680;2022-09-13T14:48:28;2.20;;;2.00;;
31866;SDS011;18431;45.580;-122.680;2022-09-13T14:50:59;2.12;;;1.92;;
31866;SDS011;18431;45.580;-122.680;2022-09-13T14:53:44;2.00;;;1.75;;
31866;SDS011;18431;45.580;-122.680;2022-09-13T15:01:54;2.00;;;1.90;;
31866;SDS011;18431;45.580;-122.680;2022-09-13T15:04:25;2.67;;;2.12;;
31866;SDS011;18431;45.580;-122.680;2022-09-13T15:13:01;2.77;;;1.92;;
31866;SDS011;18431;45.580;-122.680;2022-09-13T15:15:39;2.22;;;1.92;;
31866;SDS011;18431;45.580;-122.680;2022-09-13T15:21:01;2.30;;;2.10;;
31866;SDS011;18431;45.580;-122.680;2022-09-13T15:23:35;2.25;;;2.05;;
31866;SDS011;18431;45.580;-122.680;2022-09-13T15:26:08;2.20;;;2.00;;
31866;SDS011;18431;45.580;-122.680;2022-09-13T15:31:30;2.40;;;1.90;;
31866;SDS011;18431;45.580;-122.680;2022-09-13T15:35:02;2.58;;;2.05;;
31866;SDS011;18431;45.580;-122.680;2022-09-13T15:37:01;2.00;;;1.90;;
31866;SDS011;18431;45.580;-122.680;2022-09-13T15:39:49;2.30;;;2.10;;
31866;SDS011;18431;45.580;-122.680;2022-09-13T15:42:21;2.42;;;1.90;;
31866;SDS011;18431;45.580;-122.680;2022-09-13T15:44:51;2.30;;;2.12;;
31866;SDS011;18431;45.580;-122.680;2022-09-13T15:47:21;2.50;;;1.95;;
31866;SDS011;18431;45.580;-122.680;2022-09-13T15:49:52;2.12;;;1.98;;
31866;SDS011;18431;45.580;-122.680;2022-09-13T15:52:22;1.77;;;1.65;;
31866;SDS011;18431;45.580;-122.680;2022-09-13T15:57:40;2.20;;;2.00;;
31866;SDS011;18431;45.580;-122.680;2022-09-13T16:00:23;2.72;;;2.10;;
31866;SDS011;18431;45.580;-122.680;2022-09-13T16:02:54;1.90;;;1.77;;
31866;SDS011;18431;45.580;-122.680;2022-09-13T16:05:24;2.20;;;2.00;;
31866;SDS011;18431;45.580;-122.680;2022-09-13T16:07:54;1.90;;;1.80;;
31866;SDS011;18431;45.580;-122.680;2022-09-13T16:10:26;1.95;;;1.75;;
31866;SDS011;18431;45.580;-122.680;2022-09-13T16:12:56;2.08;;;1.77;;
31866;SDS011;18431;45.580;-122.680;2022-09-13T16:15:26;1.90;;;1.80;;
31866;SDS011;18431;45.580;-122.680;2022-09-13T16:17:56;1.80;;;1.70;;
31866;SDS011;18431;45.580;-122.680;2022-09-13T16:23:14;2.00;;;1.80;;
31866;SDS011;18431;45.580;-122.680;2022-09-13T16:25:44;1.70;;;1.60;;
31866;SDS011;18431;45.580;-122.680;2022-09-13T16:28:15;2.30;;;1.90;;
31866;SDS011;18431;45.580;-122.680;2022-09-13T16:30:49;1.98;;;1.62;;
31866;SDS011;18431;45.580;-122.680;2022-09-13T16:33:19;1.80;;;1.60;;
31866;SDS011;18431;45.580;-122.680;2022-09-13T16:35:49;3.35;;;1.80;;
31866;SDS011;18431;45.580;-122.680;2022-09-13T16:38:19;1.60;;;1.50;;
31866;SDS011;18431;45.580;-122.680;2022-09-13T16:40:59;2.40;;;1.70;;
31866;SDS011;18431;45.580;-122.680;2022-09-13T16:43:30;1.92;;;1.82;;
31866;SDS011;18431;45.580;-122.680;2022-09-13T16:46:10;2.00;;;1.60;;
31866;SDS011;18431;45.580;-122.680;2022-09-13T16:48:41;1.67;;;1.50;;
31866;SDS011;18431;45.580;-122.680;2022-09-13T16:51:11;2.17;;;1.60;;
31866;SDS011;18431;45.580;-122.680;2022-09-13T16:56:30;1.70;;;1.60;;
31866;SDS011;18431;45.580;-122.680;2022-09-13T16:59:00;1.87;;;1.70;;
31866;SDS011;18431;45.580;-122.680;2022-09-13T17:01:31;1.80;;;1.70;;
31866;SDS011;18431;45.580;-122.680;2022-09-13T17:04:01;1.65;;;1.55;;
31866;SDS011;18431;45.580;-122.680;2022-09-13T17:06:32;1.90;;;1.80;;
31866;SDS011;18431;45.580;-122.680;2022-09-13T17:11:52;1.55;;;1.45;;
31866;SDS011;18431;45.580;-122.680;2022-09-13T17:14:22;1.57;;;1.40;;
31866;SDS011;18431;45.580;-122.680;2022-09-13T17:16:53;1.98;;;1.67;;
31866;SDS011;18431;45.580;-122.680;2022-09-13T17:19:25;1.60;;;1.50;;
31866;SDS011;18431;45.580;-122.680;2022-09-13T17:24:49;1.67;;;1.57;;
31866;SDS011;18431;45.580;-122.680;2022-09-13T17:30:08;1.85;;;1.50;;
31866;SDS011;18431;45.580;-122.680;2022-09-13T17:32:39;1.60;;;1.50;;
31866;SDS011;18431;45.580;-122.680;2022-09-13T17:35:09;1.90;;;1.77;;
31866;SDS011;18431;45.580;-122.680;2022-09-13T17:37:38;1.65;;;1.50;;
31866;SDS011;18431;45.580;-122.680;2022-09-13T17:40:08;1.60;;;1.50;;
31866;SDS011;18431;45.580;-122.680;2022-09-13T17:42:39;2.15;;;1.50;;
31866;SDS011;18431;45.580;-122.680;2022-09-13T17:45:09;1.72;;;1.62;;
31866;SDS011;18431;45.580;-122.680;2022-09-13T17:47:39;1.67;;;1.57;;
31866;SDS011;18431;45.580;-122.680;2022-09-13T17:50:09;1.60;;;1.50;;
31866;SDS011;18431;45.580;-122.680;2022-09-13T17:52:39;1.87;;;1.70;;
31866;SDS011;18431;45.580;-122.680;2022-09-13T17:57:57;1.95;;;1.65;;
31866;SDS011;18431;45.580;-122.680;2022-09-13T18:00:38;1.72;;;1.62;;
31866;SDS011;18431;45.580;-122.680;2022-09-13T18:03:08;1.87;;;1.60;;
31866;SDS011;18431;45.580;-122.680;2022-09-13T18:08:27;2.00;;;1.77;;
31866;SDS011;18431;45.580;-122.680;2022-09-13T18:11:06;1.60;;;1.50;;
31866;SDS011;18431;45.580;-122.680;2022-09-13T18:13:34;1.60;;;1.50;;
31866;SDS011;18431;45.580;-122.680;2022-09-13T18:16:08;1.90;;;1.57;;
31866;SDS011;18431;45.580;-122.680;2022-09-13T18:18:40;1.70;;;1.60;;
31866;SDS011;18431;45.580;-122.680;2022-09-13T18:21:13;1.62;;;1.52;;
31866;SDS011;18431;45.580;-122.680;2022-09-13T18:24:01;1.70;;;1.60;;
31866;SDS011;18431;45.580;-122.680;2022-09-13T18:26:32;1.70;;;1.60;;
31866;SDS011;18431;45.580;-122.680;2022-09-13T18:29:03;1.72;;;1.50;;
31866;SDS011;18431;45.580;-122.680;2022-09-13T18:31:35;1.70;;;1.60;;
31866;SDS011;18431;45.580;-122.680;2022-09-13T18:34:06;1.70;;;1.60;;
31866;SDS011;18431;45.580;-122.680;2022-09-13T18:39:26;1.98;;;1.62;;
31866;SDS011;18431;45.580;-122.680;2022-09-13T18:41:56;2.15;;;1.40;;
31866;SDS011;18431;45.580;-122.680;2022-09-13T18:44:27;1.82;;;1.70;;